sensor_id;sensor_type;location;lat;lon;timestamp;P1;durP1;ratioP1;P2;durP2;ratioP2
33814;SDS011;20121;51.910;8.406;2023-05-07T00:02:06;5.50;;;4.30;;
33814;SDS011;20121;51.910;8.406;2023-05-07T00:04:32;4.55;;;3.10;;
33814;SDS011;20121;51.910;8.406;2023-05-07T00:07:01;5.07;;;3.50;;
33814;SDS011;20121;51.910;8.406;2023-05-07T00:09:27;4.40;;;3.13;;
33814;SDS011;20121;51.910;8.406;2023-05-07T00:11:53;5.13;;;3.30;;
33814;SDS011;20121;51.910;8.406;2023-05-07T00:14:19;4.73;;;3.10;;
33814;SDS011;20121;51.910;8.406;2023-05-07T00:16:45;5.88;;;3.63;;
33814;SDS011;20121;51.910;8.406;2023-05-07T00:19:11;5.63;;;4.00;;
33814;SDS011;20121;51.910;8.406;2023-05-07T00:21:37;5.70;;;4.17;;
33814;SDS011;20121;51.910;8.406;2023-05-07T00:24:02;4.53;;;4.13;;
33814;SDS011;20121;51.910;8.406;2023-05-07T00:26:28;5.35;;;3.75;;
33814;SDS011;20121;51.910;8.406;2023-05-07T00:28:54;4.73;;;3.30;;
33814;SDS011;20121;51.910;8.406;2023-05-07T00:31:20;5.47;;;4.00;;
33814;SDS011;20121;51.910;8.406;2023-05-07T00:33:45;6.20;;;4.60;;
33814;SDS011;20121;51.910;8.406;2023-05-07T00:36:11;3.53;;;3.23;;
33814;SDS011;20121;51.910;8.406;2023-05-07T00:38:37;7.40;;;4.30;;
33814;SDS011;20121;51.910;8.406;2023-05-07T00:41:03;5.63;;;3.63;;
33814;SDS011;20121;51.910;8.406;2023-05-07T00:43:28;4.30;;;3.90;;
33814;SDS011;20121;51.910;8.406;2023-05-07T00:45:54;6.90;;;5.10;;
33814;SDS011;20121;51.910;8.406;2023-05-07T00:48:20;10.50;;;4.70;;
33814;SDS011;20121;51.910;8.406;2023-05-07T00:50:46;4.28;;;3.80;;
33814;SDS011;20121;51.910;8.406;2023-05-07T00:53:13;4.50;;;3.67;;
33814;SDS011;20121;51.910;8.406;2023-05-07T00:55:39;5.07;;;4.57;;
33814;SDS011;20121;51.910;8.406;2023-05-07T00:58:05;6.00;;;3.10;;
33814;SDS011;20121;51.910;8.406;2023-05-07T01:00:31;4.45;;;3.30;;
33814;SDS011;20121;51.910;8.406;2023-05-07T01:02:57;6.50;;;4.30;;
33814;SDS011;20121;51.910;8.406;2023-05-07T01:05:23;6.57;;;4.27;;
33814;SDS011;20121;51.910;8.406;2023-05-07T01:07:50;7.97;;;4.85;;
33814;SDS011;20121;51.910;8.406;2023-05-07T01:10:17;7.18;;;4.38;;
33814;SDS011;20121;51.910;8.406;2023-05-07T01:12:43;11.63;;;4.78;;
33814;SDS011;20121;51.910;8.406;2023-05-07T01:15:10;5.55;;;4.03;;
33814;SDS011;20121;51.910;8.406;2023-05-07T01:17:37;7.82;;;4.57;;
33814;SDS011;20121;51.910;8.406;2023-05-07T01:20:06;6.85;;;5.20;;
33814;SDS011;20121;51.910;8.406;2023-05-07T01:24:59;8.80;;;5.85;;
33814;SDS011;20121;51.910;8.406;2023-05-07T01:27:26;7.88;;;4.55;;
33814;SDS011;20121;51.910;8.406;2023-05-07T01:29:52;9.52;;;4.32;;
33814;SDS011;20121;51.910;8.406;2023-05-07T01:32:19;6.00;;;5.20;;
33814;SDS011;20121;51.910;8.406;2023-05-07T01:34:49;6.15;;;5.10;;
33814;SDS011;20121;51.910;8.406;2023-05-07T01:37:17;9.00;;;5.65;;
33814;SDS011;20121;51.910;8.406;2023-05-07T01:39:43;5.77;;;4.27;;
33814;SDS011;20121;51.910;8.406;2023-05-07T01:42:09;6.07;;;4.22;;
33814;SDS011;20121;51.910;8.406;2023-05-07T01:44:35;7.47;;;5.33;;
33814;SDS011;20121;51.910;8.406;2023-05-07T01:47:01;9.00;;;4.90;;
33814;SDS011;20121;51.910;8.406;2023-05-07T01:49:27;5.22;;;3.90;;
33814;SDS011;20121;51.910;8.406;2023-05-07T01:51:53;6.70;;;4.57;;
33814;SDS011;20121;51.910;8.406;2023-05-07T01:54:19;6.83;;;3.90;;
33814;SDS011;20121;51.910;8.406;2023-05-07T01:56:45;8.60;;;4.05;;
33814;SDS011;20121;51.910;8.406;2023-05-07T01:59:13;8.13;;;5.78;;
33814;SDS011;20121;51.910;8.406;2023-05-07T02:01:38;8.07;;;5.23;;
33814;SDS011;20121;51.910;8.406;2023-05-07T02:04:04;6.70;;;5.70;;
33814;SDS011;20121;51.910;8.406;2023-05-07T02:06:29;5.43;;;4.33;;
33814;SDS011;20121;51.910;8.406;2023-05-07T02:08:56;7.13;;;4.85;;
33814;SDS011;20121;51.910;8.406;2023-05-07T02:11:21;9.70;;;5.70;;
33814;SDS011;20121;51.910;8.406;2023-05-07T02:13:47;6.37;;;4.77;;
33814;SDS011;20121;51.910;8.406;2023-05-07T02:16:13;8.63;;;4.87;;
33814;SDS011;20121;51.910;8.406;2023-05-07T02:18:39;9.48;;;5.22;;
33814;SDS011;20121;51.910;8.406;2023-05-07T02:21:05;5.20;;;3.27;;
33814;SDS011;20121;51.910;8.406;2023-05-07T02:23:30;9.03;;;4.33;;
33814;SDS011;20121;51.910;8.406;2023-05-07T02:25:56;9.27;;;5.37;;
33814;SDS011;20121;51.910;8.406;2023-05-07T02:28:21;5.77;;;4.67;;
33814;SDS011;20121;51.910;8.406;2023-05-07T02:30:47;6.20;;;5.27;;
33814;SDS011;20121;51.910;8.406;2023-05-07T02:33:13;6.13;;;5.47;;
33814;SDS011;20121;51.910;8.406;2023-05-07T02:35:38;6.10;;;5.20;;
33814;SDS011;20121;51.910;8.406;2023-05-07T02:38:04;20.00;;;7.97;;
33814;SDS011;20121;51.910;8.406;2023-05-07T02:40:30;8.17;;;6.10;;
33814;SDS011;20121;51.910;8.406;2023-05-07T02:42:58;8.05;;;5.13;;
33814;SDS011;20121;51.910;8.406;2023-05-07T02:45:24;5.60;;;4.43;;
33814;SDS011;20121;51.910;8.406;2023-05-07T02:47:50;7.70;;;4.67;;
33814;SDS011;20121;51.910;8.406;2023-05-07T02:50:16;7.50;;;5.80;;
33814;SDS011;20121;51.910;8.406;2023-05-07T02:52:41;9.07;;;4.73;;
33814;SDS011;20121;51.910;8.406;2023-05-07T02:55:07;10.00;;;5.40;;
33814;SDS011;20121;51.910;8.406;2023-05-07T02:57:33;8.02;;;5.38;;
33814;SDS011;20121;51.910;8.406;2023-05-07T02:59:59;8.93;;;5.77;;
33814;SDS011;20121;51.910;8.406;2023-05-07T03:02:24;6.53;;;5.10;;
33814;SDS011;20121;51.910;8.406;2023-05-07T03:04:50;10.20;;;5.90;;
33814;SDS011;20121;51.910;8.406;2023-05-07T03:07:15;13.87;;;6.53;;
33814;SDS011;20121;51.910;8.406;2023-05-07T03:09:41;8.60;;;6.97;;
33814;SDS011;20121;51.910;8.406;2023-05-07T03:12:07;9.03;;;5.17;;
33814;SDS011;20121;51.910;8.406;2023-05-07T03:14:32;6.20;;;4.90;;
33814;SDS011;20121;51.910;8.406;2023-05-07T03:16:58;7.30;;;3.40;;
33814;SDS011;20121;51.910;8.406;2023-05-07T03:19:23;17.73;;;6.27;;
33814;SDS011;20121;51.910;8.406;2023-05-07T03:21:49;6.93;;;5.20;;
33814;SDS011;20121;51.910;8.406;2023-05-07T03:24:15;7.97;;;5.07;;
33814;SDS011;20121;51.910;8.406;2023-05-07T03:26:40;7.80;;;5.37;;
33814;SDS011;20121;51.910;8.406;2023-05-07T03:29:06;8.67;;;6.03;;
33814;SDS011;20121;51.910;8.406;2023-05-07T03:31:31;8.13;;;5.13;;
33814;SDS011;20121;51.910;8.406;2023-05-07T03:33:57;8.00;;;5.30;;
33814;SDS011;20121;51.910;8.406;2023-05-07T03:36:23;7.97;;;5.60;;
33814;SDS011;20121;51.910;8.406;2023-05-07T03:38:49;7.70;;;5.07;;
33814;SDS011;20121;51.910;8.406;2023-05-07T03:41:15;5.53;;;4.10;;
33814;SDS011;20121;51.910;8.406;2023-05-07T03:43:41;10.23;;;5.70;;
33814;SDS011;20121;51.910;8.406;2023-05-07T03:46:06;7.00;;;5.33;;
33814;SDS011;20121;51.910;8.406;2023-05-07T03:48:32;5.80;;;4.80;;
33814;SDS011;20121;51.910;8.406;2023-05-07T03:50:58;6.27;;;4.30;;
33814;SDS011;20121;51.910;8.406;2023-05-07T03:53:24;12.57;;;6.15;;
33814;SDS011;20121;51.910;8.406;2023-05-07T03:55:50;8.00;;;5.77;;
33814;SDS011;20121;51.910;8.406;2023-05-07T03:58:15;17.23;;;6.53;;
33814;SDS011;20121;51.910;8.406;2023-05-07T04:00:41;7.90;;;5.57;;
33814;SDS011;20121;51.910;8.406;2023-05-07T04:03:07;5.70;;;4.37;;
33814;SDS011;20121;51.910;8.406;2023-05-07T04:05:33;8.70;;;5.73;;
33814;SDS011;20121;51.910;8.406;2023-05-07T04:07:59;6.93;;;5.30;;
33814;SDS011;20121;51.910;8.406;2023-05-07T04:10:25;9.00;;;6.32;;
33814;SDS011;20121;51.910;8.406;2023-05-07T04:12:50;14.07;;;7.60;;
33814;SDS011;20121;51.910;8.406;2023-05-07T04:15:16;7.17;;;6.00;;
33814;SDS011;20121;51.910;8.406;2023-05-07T04:17:42;6.65;;;4.32;;
33814;SDS011;20121;51.910;8.406;2023-05-07T04:20:14;6.47;;;4.43;;
33814;SDS011;20121;51.910;8.406;2023-05-07T04:22:41;13.63;;;5.10;;
33814;SDS011;20121;51.910;8.406;2023-05-07T04:25:07;7.07;;;4.07;;
33814;SDS011;20121;51.910;8.406;2023-05-07T04:27:36;6.95;;;5.35;;
33814;SDS011;20121;51.910;8.406;2023-05-07T04:30:02;7.37;;;4.50;;
33814;SDS011;20121;51.910;8.406;2023-05-07T04:32:29;16.25;;;6.85;;
33814;SDS011;20121;51.910;8.406;2023-05-07T04:34:55;8.00;;;5.07;;
33814;SDS011;20121;51.910;8.406;2023-05-07T04:37:21;13.15;;;6.53;;
33814;SDS011;20121;51.910;8.406;2023-05-07T04:39:47;11.60;;;6.72;;
33814;SDS011;20121;51.910;8.406;2023-05-07T04:42:16;9.98;;;5.68;;
33814;SDS011;20121;51.910;8.406;2023-05-07T04:44:43;21.15;;;6.82;;
33814;SDS011;20121;51.910;8.406;2023-05-07T04:47:10;10.40;;;4.18;;
33814;SDS011;20121;51.910;8.406;2023-05-07T04:49:36;10.55;;;6.93;;
33814;SDS011;20121;51.910;8.406;2023-05-07T04:52:03;8.18;;;6.18;;
33814;SDS011;20121;51.910;8.406;2023-05-07T04:54:29;8.13;;;6.20;;
33814;SDS011;20121;51.910;8.406;2023-05-07T04:56:54;7.70;;;6.23;;
33814;SDS011;20121;51.910;8.406;2023-05-07T04:59:20;10.50;;;6.13;;
33814;SDS011;20121;51.910;8.406;2023-05-07T05:01:46;9.93;;;5.80;;
33814;SDS011;20121;51.910;8.406;2023-05-07T05:04:11;11.63;;;6.07;;
33814;SDS011;20121;51.910;8.406;2023-05-07T05:06:38;8.15;;;5.53;;
33814;SDS011;20121;51.910;8.406;2023-05-07T05:09:03;10.33;;;6.00;;
33814;SDS011;20121;51.910;8.406;2023-05-07T05:11:30;10.18;;;6.00;;
33814;SDS011;20121;51.910;8.406;2023-05-07T05:13:56;7.60;;;5.53;;
33814;SDS011;20121;51.910;8.406;2023-05-07T05:16:22;7.30;;;6.07;;
33814;SDS011;20121;51.910;8.406;2023-05-07T05:18:48;9.13;;;6.00;;
33814;SDS011;20121;51.910;8.406;2023-05-07T05:21:13;9.63;;;6.57;;
33814;SDS011;20121;51.910;8.406;2023-05-07T05:23:39;12.40;;;6.00;;
33814;SDS011;20121;51.910;8.406;2023-05-07T05:26:04;8.57;;;4.73;;
33814;SDS011;20121;51.910;8.406;2023-05-07T05:28:30;7.80;;;5.23;;
33814;SDS011;20121;51.910;8.406;2023-05-07T05:30:56;12.03;;;6.67;;
33814;SDS011;20121;51.910;8.406;2023-05-07T05:33:21;11.93;;;5.43;;
33814;SDS011;20121;51.910;8.406;2023-05-07T05:35:47;8.93;;;6.00;;
33814;SDS011;20121;51.910;8.406;2023-05-07T05:38:14;9.95;;;6.03;;
33814;SDS011;20121;51.910;8.406;2023-05-07T05:40:40;13.07;;;6.90;;
33814;SDS011;20121;51.910;8.406;2023-05-07T05:43:05;11.10;;;7.10;;
33814;SDS011;20121;51.910;8.406;2023-05-07T05:45:31;13.43;;;7.60;;
33814;SDS011;20121;51.910;8.406;2023-05-07T05:47:57;10.80;;;5.93;;
33814;SDS011;20121;51.910;8.406;2023-05-07T05:50:22;10.53;;;6.63;;
33814;SDS011;20121;51.910;8.406;2023-05-07T05:52:48;14.30;;;9.27;;
33814;SDS011;20121;51.910;8.406;2023-05-07T05:55:14;9.73;;;5.70;;
33814;SDS011;20121;51.910;8.406;2023-05-07T05:57:39;6.70;;;4.93;;
33814;SDS011;20121;51.910;8.406;2023-05-07T06:00:05;12.07;;;7.53;;
33814;SDS011;20121;51.910;8.406;2023-05-07T06:02:32;9.20;;;5.65;;
33814;SDS011;20121;51.910;8.406;2023-05-07T06:04:58;10.57;;;6.10;;
33814;SDS011;20121;51.910;8.406;2023-05-07T06:07:24;8.00;;;5.67;;
33814;SDS011;20121;51.910;8.406;2023-05-07T06:09:50;8.63;;;5.70;;
33814;SDS011;20121;51.910;8.406;2023-05-07T06:12:15;12.37;;;7.97;;
33814;SDS011;20121;51.910;8.406;2023-05-07T06:14:42;12.10;;;6.50;;
33814;SDS011;20121;51.910;8.406;2023-05-07T06:17:08;10.30;;;6.35;;
33814;SDS011;20121;51.910;8.406;2023-05-07T06:19:34;8.67;;;5.70;;
33814;SDS011;20121;51.910;8.406;2023-05-07T06:21:59;10.63;;;5.50;;
33814;SDS011;20121;51.910;8.406;2023-05-07T06:24:26;10.75;;;5.65;;
33814;SDS011;20121;51.910;8.406;2023-05-07T06:26:52;8.07;;;5.90;;
33814;SDS011;20121;51.910;8.406;2023-05-07T06:29:18;14.83;;;6.70;;
33814;SDS011;20121;51.910;8.406;2023-05-07T06:31:43;7.73;;;5.30;;
33814;SDS011;20121;51.910;8.406;2023-05-07T06:34:09;8.20;;;5.00;;
33814;SDS011;20121;51.910;8.406;2023-05-07T06:36:39;8.60;;;6.20;;
33814;SDS011;20121;51.910;8.406;2023-05-07T06:39:05;11.60;;;5.07;;
33814;SDS011;20121;51.910;8.406;2023-05-07T06:41:30;14.47;;;6.00;;
33814;SDS011;20121;51.910;8.406;2023-05-07T06:43:56;10.30;;;6.30;;
33814;SDS011;20121;51.910;8.406;2023-05-07T06:46:22;7.50;;;4.73;;
33814;SDS011;20121;51.910;8.406;2023-05-07T06:48:47;6.43;;;5.67;;
33814;SDS011;20121;51.910;8.406;2023-05-07T06:51:13;7.37;;;5.87;;
33814;SDS011;20121;51.910;8.406;2023-05-07T06:53:38;9.33;;;5.37;;
33814;SDS011;20121;51.910;8.406;2023-05-07T06:56:04;9.20;;;4.53;;
33814;SDS011;20121;51.910;8.406;2023-05-07T06:58:30;9.10;;;6.20;;
33814;SDS011;20121;51.910;8.406;2023-05-07T07:00:55;7.10;;;5.60;;
33814;SDS011;20121;51.910;8.406;2023-05-07T07:03:21;11.90;;;5.43;;
33814;SDS011;20121;51.910;8.406;2023-05-07T07:05:47;9.90;;;5.43;;
33814;SDS011;20121;51.910;8.406;2023-05-07T07:08:12;15.37;;;5.53;;
33814;SDS011;20121;51.910;8.406;2023-05-07T07:10:38;8.30;;;5.83;;
33814;SDS011;20121;51.910;8.406;2023-05-07T07:13:03;8.40;;;5.17;;
33814;SDS011;20121;51.910;8.406;2023-05-07T07:15:29;7.27;;;5.67;;
33814;SDS011;20121;51.910;8.406;2023-05-07T07:17:55;8.03;;;4.83;;
33814;SDS011;20121;51.910;8.406;2023-05-07T07:20:20;7.63;;;4.47;;
33814;SDS011;20121;51.910;8.406;2023-05-07T07:22:46;5.00;;;3.90;;
33814;SDS011;20121;51.910;8.406;2023-05-07T07:25:12;9.40;;;5.47;;
33814;SDS011;20121;51.910;8.406;2023-05-07T07:27:37;8.77;;;5.20;;
33814;SDS011;20121;51.910;8.406;2023-05-07T07:30:05;11.38;;;4.55;;
33814;SDS011;20121;51.910;8.406;2023-05-07T07:32:31;8.88;;;4.95;;
33814;SDS011;20121;51.910;8.406;2023-05-07T07:34:58;8.43;;;5.05;;
33814;SDS011;20121;51.910;8.406;2023-05-07T07:37:23;5.70;;;4.00;;
33814;SDS011;20121;51.910;8.406;2023-05-07T07:39:50;6.15;;;4.20;;
33814;SDS011;20121;51.910;8.406;2023-05-07T07:42:16;6.67;;;4.57;;
33814;SDS011;20121;51.910;8.406;2023-05-07T07:44:41;6.10;;;3.30;;
33814;SDS011;20121;51.910;8.406;2023-05-07T07:47:07;7.37;;;4.03;;
33814;SDS011;20121;51.910;8.406;2023-05-07T07:49:32;8.57;;;4.77;;
33814;SDS011;20121;51.910;8.406;2023-05-07T07:51:58;11.03;;;4.80;;
33814;SDS011;20121;51.910;8.406;2023-05-07T07:54:24;9.00;;;4.70;;
33814;SDS011;20121;51.910;8.406;2023-05-07T07:56:50;5.35;;;3.88;;
33814;SDS011;20121;51.910;8.406;2023-05-07T07:59:16;7.57;;;4.65;;
33814;SDS011;20121;51.910;8.406;2023-05-07T08:01:44;6.75;;;4.30;;
33814;SDS011;20121;51.910;8.406;2023-05-07T08:04:10;9.00;;;4.60;;
33814;SDS011;20121;51.910;8.406;2023-05-07T08:06:36;10.37;;;4.93;;
33814;SDS011;20121;51.910;8.406;2023-05-07T08:09:01;6.50;;;4.47;;
33814;SDS011;20121;51.910;8.406;2023-05-07T08:11:27;6.97;;;4.90;;
33814;SDS011;20121;51.910;8.406;2023-05-07T08:13:53;5.35;;;4.18;;
33814;SDS011;20121;51.910;8.406;2023-05-07T08:16:20;5.70;;;4.25;;
33814;SDS011;20121;51.910;8.406;2023-05-07T08:18:45;4.90;;;3.90;;
33814;SDS011;20121;51.910;8.406;2023-05-07T08:21:11;5.43;;;4.00;;
33814;SDS011;20121;51.910;8.406;2023-05-07T08:23:37;5.20;;;3.50;;
33814;SDS011;20121;51.910;8.406;2023-05-07T08:26:02;9.60;;;3.43;;
33814;SDS011;20121;51.910;8.406;2023-05-07T08:28:28;5.10;;;4.10;;
33814;SDS011;20121;51.910;8.406;2023-05-07T08:30:54;7.97;;;4.50;;
33814;SDS011;20121;51.910;8.406;2023-05-07T08:33:21;4.65;;;3.28;;
33814;SDS011;20121;51.910;8.406;2023-05-07T08:35:47;4.57;;;3.50;;
33814;SDS011;20121;51.910;8.406;2023-05-07T08:38:12;7.03;;;3.43;;
33814;SDS011;20121;51.910;8.406;2023-05-07T08:40:39;5.47;;;3.57;;
33814;SDS011;20121;51.910;8.406;2023-05-07T08:43:06;6.05;;;3.95;;
33814;SDS011;20121;51.910;8.406;2023-05-07T08:45:32;5.55;;;3.30;;
33814;SDS011;20121;51.910;8.406;2023-05-07T08:47:59;7.75;;;3.72;;
33814;SDS011;20121;51.910;8.406;2023-05-07T08:50:28;5.63;;;3.22;;
33814;SDS011;20121;51.910;8.406;2023-05-07T08:52:54;9.98;;;4.50;;
33814;SDS011;20121;51.910;8.406;2023-05-07T08:55:21;4.55;;;2.72;;
33814;SDS011;20121;51.910;8.406;2023-05-07T08:57:47;3.95;;;2.95;;
33814;SDS011;20121;51.910;8.406;2023-05-07T09:00:13;5.77;;;3.80;;
33814;SDS011;20121;51.910;8.406;2023-05-07T09:02:39;3.38;;;2.85;;
33814;SDS011;20121;51.910;8.406;2023-05-07T09:05:05;5.47;;;3.47;;
33814;SDS011;20121;51.910;8.406;2023-05-07T09:07:31;4.53;;;2.92;;
33814;SDS011;20121;51.910;8.406;2023-05-07T09:09:57;3.63;;;2.60;;
33814;SDS011;20121;51.910;8.406;2023-05-07T09:12:23;5.40;;;2.80;;
33814;SDS011;20121;51.910;8.406;2023-05-07T09:14:49;5.47;;;3.30;;
33814;SDS011;20121;51.910;8.406;2023-05-07T09:17:15;6.05;;;2.60;;
33814;SDS011;20121;51.910;8.406;2023-05-07T09:19:41;3.53;;;3.17;;
33814;SDS011;20121;51.910;8.406;2023-05-07T09:22:08;4.20;;;2.92;;
33814;SDS011;20121;51.910;8.406;2023-05-07T09:24:34;8.00;;;3.57;;
33814;SDS011;20121;51.910;8.406;2023-05-07T09:27:02;7.53;;;3.45;;
33814;SDS011;20121;51.910;8.406;2023-05-07T09:29:31;3.30;;;2.97;;
33814;SDS011;20121;51.910;8.406;2023-05-07T09:32:03;4.30;;;3.13;;
33814;SDS011;20121;51.910;8.406;2023-05-07T09:34:30;6.53;;;3.78;;
33814;SDS011;20121;51.910;8.406;2023-05-07T09:36:58;5.80;;;3.20;;
33814;SDS011;20121;51.910;8.406;2023-05-07T09:39:25;4.60;;;3.35;;
33814;SDS011;20121;51.910;8.406;2023-05-07T09:41:51;4.37;;;2.53;;
33814;SDS011;20121;51.910;8.406;2023-05-07T09:44:19;8.52;;;3.95;;
33814;SDS011;20121;51.910;8.406;2023-05-07T09:46:47;4.60;;;3.10;;
33814;SDS011;20121;51.910;8.406;2023-05-07T09:49:22;5.25;;;3.08;;
33814;SDS011;20121;51.910;8.406;2023-05-07T09:51:49;5.63;;;3.65;;
33814;SDS011;20121;51.910;8.406;2023-05-07T09:54:16;6.13;;;3.47;;
33814;SDS011;20121;51.910;8.406;2023-05-07T09:56:43;5.13;;;2.70;;
33814;SDS011;20121;51.910;8.406;2023-05-07T09:59:10;6.85;;;3.40;;
33814;SDS011;20121;51.910;8.406;2023-05-07T10:01:38;4.50;;;3.13;;
33814;SDS011;20121;51.910;8.406;2023-05-07T10:04:07;5.72;;;4.03;;
33814;SDS011;20121;51.910;8.406;2023-05-07T10:06:35;5.78;;;2.75;;
33814;SDS011;20121;51.910;8.406;2023-05-07T10:09:02;4.25;;;3.33;;
33814;SDS011;20121;51.910;8.406;2023-05-07T10:11:30;4.57;;;2.80;;
33814;SDS011;20121;51.910;8.406;2023-05-07T10:14:00;4.70;;;2.60;;
33814;SDS011;20121;51.910;8.406;2023-05-07T10:16:27;6.15;;;3.42;;
33814;SDS011;20121;51.910;8.406;2023-05-07T10:18:58;3.80;;;3.25;;
33814;SDS011;20121;51.910;8.406;2023-05-07T10:21:24;5.57;;;3.20;;
33814;SDS011;20121;51.910;8.406;2023-05-07T10:23:57;5.10;;;3.03;;
33814;SDS011;20121;51.910;8.406;2023-05-07T10:26:25;4.45;;;2.63;;
33814;SDS011;20121;51.910;8.406;2023-05-07T10:28:55;7.38;;;3.60;;
33814;SDS011;20121;51.910;8.406;2023-05-07T10:34:33;5.03;;;3.17;;
33814;SDS011;20121;51.910;8.406;2023-05-07T10:37:02;3.45;;;3.15;;
33814;SDS011;20121;51.910;8.406;2023-05-07T10:39:29;4.05;;;3.05;;
33814;SDS011;20121;51.910;8.406;2023-05-07T10:41:55;5.90;;;3.15;;
33814;SDS011;20121;51.910;8.406;2023-05-07T10:44:27;6.77;;;4.23;;
33814;SDS011;20121;51.910;8.406;2023-05-07T10:47:09;4.10;;;3.42;;
33814;SDS011;20121;51.910;8.406;2023-05-07T10:49:37;3.53;;;3.08;;
33814;SDS011;20121;51.910;8.406;2023-05-07T10:52:18;5.30;;;3.70;;
33814;SDS011;20121;51.910;8.406;2023-05-07T10:54:46;4.43;;;3.22;;
33814;SDS011;20121;51.910;8.406;2023-05-07T10:59:56;3.95;;;2.90;;
33814;SDS011;20121;51.910;8.406;2023-05-07T11:02:22;4.43;;;2.90;;
33814;SDS011;20121;51.910;8.406;2023-05-07T11:05:18;3.97;;;2.57;;
33814;SDS011;20121;51.910;8.406;2023-05-07T11:07:54;9.38;;;2.85;;
33814;SDS011;20121;51.910;8.406;2023-05-07T11:10:21;4.72;;;3.38;;
33814;SDS011;20121;51.910;8.406;2023-05-07T11:12:48;3.30;;;2.33;;
33814;SDS011;20121;51.910;8.406;2023-05-07T11:15:33;6.32;;;3.35;;
33814;SDS011;20121;51.910;8.406;2023-05-07T11:18:00;4.82;;;3.25;;
33814;SDS011;20121;51.910;8.406;2023-05-07T11:26:06;4.03;;;3.40;;
33814;SDS011;20121;51.910;8.406;2023-05-07T11:28:36;6.72;;;3.33;;
33814;SDS011;20121;51.910;8.406;2023-05-07T11:31:03;4.43;;;3.17;;
33814;SDS011;20121;51.910;8.406;2023-05-07T11:33:32;5.30;;;3.28;;
33814;SDS011;20121;51.910;8.406;2023-05-07T11:35:59;5.57;;;3.10;;
33814;SDS011;20121;51.910;8.406;2023-05-07T11:38:28;6.22;;;3.63;;
33814;SDS011;20121;51.910;8.406;2023-05-07T11:41:03;5.28;;;3.13;;
33814;SDS011;20121;51.910;8.406;2023-05-07T11:43:30;3.78;;;2.22;;
33814;SDS011;20121;51.910;8.406;2023-05-07T11:46:04;5.70;;;3.13;;
33814;SDS011;20121;51.910;8.406;2023-05-07T11:48:32;3.35;;;2.50;;
33814;SDS011;20121;51.910;8.406;2023-05-07T11:53:24;4.20;;;3.50;;
33814;SDS011;20121;51.910;8.406;2023-05-07T11:55:57;3.38;;;2.72;;
33814;SDS011;20121;51.910;8.406;2023-05-07T11:58:23;4.75;;;2.97;;
33814;SDS011;20121;51.910;8.406;2023-05-07T12:00:53;2.80;;;2.30;;
33814;SDS011;20121;51.910;8.406;2023-05-07T12:03:22;6.20;;;2.67;;
33814;SDS011;20121;51.910;8.406;2023-05-07T12:05:48;2.63;;;2.42;;
33814;SDS011;20121;51.910;8.406;2023-05-07T12:08:17;3.30;;;2.50;;
33814;SDS011;20121;51.910;8.406;2023-05-07T12:10:44;3.05;;;2.65;;
33814;SDS011;20121;51.910;8.406;2023-05-07T12:13:19;3.50;;;2.08;;
33814;SDS011;20121;51.910;8.406;2023-05-07T12:15:46;2.70;;;2.33;;
33814;SDS011;20121;51.910;8.406;2023-05-07T12:18:15;4.80;;;3.08;;
33814;SDS011;20121;51.910;8.406;2023-05-07T12:20:41;4.40;;;2.40;;
33814;SDS011;20121;51.910;8.406;2023-05-07T12:23:07;2.90;;;2.38;;
33814;SDS011;20121;51.910;8.406;2023-05-07T12:25:36;3.13;;;2.70;;
33814;SDS011;20121;51.910;8.406;2023-05-07T12:28:03;1.98;;;1.75;;
33814;SDS011;20121;51.910;8.406;2023-05-07T12:30:32;3.35;;;2.50;;
33814;SDS011;20121;51.910;8.406;2023-05-07T12:33:04;3.42;;;2.63;;
33814;SDS011;20121;51.910;8.406;2023-05-07T12:35:37;2.77;;;2.30;;
33814;SDS011;20121;51.910;8.406;2023-05-07T12:38:07;4.10;;;2.38;;
33814;SDS011;20121;51.910;8.406;2023-05-07T12:40:37;3.03;;;2.10;;
33814;SDS011;20121;51.910;8.406;2023-05-07T12:43:08;3.08;;;2.00;;
33814;SDS011;20121;51.910;8.406;2023-05-07T12:45:43;1.90;;;1.80;;
33814;SDS011;20121;51.910;8.406;2023-05-07T12:48:10;3.20;;;2.60;;
33814;SDS011;20121;51.910;8.406;2023-05-07T12:50:36;2.90;;;2.30;;
33814;SDS011;20121;51.910;8.406;2023-05-07T12:53:05;1.80;;;1.70;;
33814;SDS011;20121;51.910;8.406;2023-05-07T12:55:34;1.50;;;1.40;;
33814;SDS011;20121;51.910;8.406;2023-05-07T12:58:14;3.40;;;2.35;;
33814;SDS011;20121;51.910;8.406;2023-05-07T13:00:44;2.67;;;1.80;;
33814;SDS011;20121;51.910;8.406;2023-05-07T13:03:15;4.85;;;1.85;;
33814;SDS011;20121;51.910;8.406;2023-05-07T13:05:50;2.25;;;2.05;;
33814;SDS011;20121;51.910;8.406;2023-05-07T13:08:26;2.97;;;2.13;;
33814;SDS011;20121;51.910;8.406;2023-05-07T13:10:54;2.85;;;1.92;;
33814;SDS011;20121;51.910;8.406;2023-05-07T13:13:20;3.83;;;2.60;;
33814;SDS011;20121;51.910;8.406;2023-05-07T13:15:46;2.10;;;1.90;;
33814;SDS011;20121;51.910;8.406;2023-05-07T13:18:12;1.75;;;1.42;;
33814;SDS011;20121;51.910;8.406;2023-05-07T13:20:38;3.10;;;1.30;;
33814;SDS011;20121;51.910;8.406;2023-05-07T13:23:04;2.30;;;2.00;;
33814;SDS011;20121;51.910;8.406;2023-05-07T13:25:30;2.37;;;1.67;;
33814;SDS011;20121;51.910;8.406;2023-05-07T13:27:59;1.67;;;1.58;;
33814;SDS011;20121;51.910;8.406;2023-05-07T13:30:25;1.95;;;1.58;;
33814;SDS011;20121;51.910;8.406;2023-05-07T13:32:51;2.80;;;2.50;;
33814;SDS011;20121;51.910;8.406;2023-05-07T13:35:18;1.80;;;1.70;;
33814;SDS011;20121;51.910;8.406;2023-05-07T13:37:44;2.50;;;1.93;;
33814;SDS011;20121;51.910;8.406;2023-05-07T13:40:10;2.23;;;1.63;;
33814;SDS011;20121;51.910;8.406;2023-05-07T13:42:36;2.38;;;2.17;;
33814;SDS011;20121;51.910;8.406;2023-05-07T13:45:01;1.60;;;1.47;;
33814;SDS011;20121;51.910;8.406;2023-05-07T13:47:29;3.10;;;1.80;;
33814;SDS011;20121;51.910;8.406;2023-05-07T13:49:54;1.80;;;1.70;;
33814;SDS011;20121;51.910;8.406;2023-05-07T13:52:20;2.23;;;1.47;;
33814;SDS011;20121;51.910;8.406;2023-05-07T13:54:45;2.63;;;1.87;;
33814;SDS011;20121;51.910;8.406;2023-05-07T13:57:11;2.60;;;1.43;;
33814;SDS011;20121;51.910;8.406;2023-05-07T13:59:37;1.90;;;1.53;;
33814;SDS011;20121;51.910;8.406;2023-05-07T14:02:02;1.43;;;1.33;;
33814;SDS011;20121;51.910;8.406;2023-05-07T14:04:28;1.80;;;1.70;;
33814;SDS011;20121;51.910;8.406;2023-05-07T14:06:55;2.65;;;1.42;;
33814;SDS011;20121;51.910;8.406;2023-05-07T14:09:20;1.93;;;1.77;;
33814;SDS011;20121;51.910;8.406;2023-05-07T14:11:46;2.00;;;1.70;;
33814;SDS011;20121;51.910;8.406;2023-05-07T14:14:16;3.20;;;1.77;;
33814;SDS011;20121;51.910;8.406;2023-05-07T14:16:42;2.30;;;1.88;;
33814;SDS011;20121;51.910;8.406;2023-05-07T14:19:07;1.80;;;1.67;;
33814;SDS011;20121;51.910;8.406;2023-05-07T14:21:33;2.50;;;1.87;;
33814;SDS011;20121;51.910;8.406;2023-05-07T14:23:59;2.30;;;1.47;;
33814;SDS011;20121;51.910;8.406;2023-05-07T14:26:25;2.00;;;1.57;;
33814;SDS011;20121;51.910;8.406;2023-05-07T14:28:52;2.75;;;2.25;;
33814;SDS011;20121;51.910;8.406;2023-05-07T14:31:19;1.75;;;1.65;;
33814;SDS011;20121;51.910;8.406;2023-05-07T14:33:46;2.28;;;2.00;;
33814;SDS011;20121;51.910;8.406;2023-05-07T14:36:11;2.10;;;1.80;;
33814;SDS011;20121;51.910;8.406;2023-05-07T14:38:37;2.37;;;2.00;;
33814;SDS011;20121;51.910;8.406;2023-05-07T14:41:03;1.50;;;1.40;;
33814;SDS011;20121;51.910;8.406;2023-05-07T14:43:28;1.70;;;1.60;;
33814;SDS011;20121;51.910;8.406;2023-05-07T14:45:54;1.53;;;1.33;;
33814;SDS011;20121;51.910;8.406;2023-05-07T14:48:20;1.67;;;1.57;;
33814;SDS011;20121;51.910;8.406;2023-05-07T14:50:49;1.40;;;1.30;;
33814;SDS011;20121;51.910;8.406;2023-05-07T14:53:15;3.38;;;2.30;;
33814;SDS011;20121;51.910;8.406;2023-05-07T14:55:41;2.50;;;1.83;;
33814;SDS011;20121;51.910;8.406;2023-05-07T14:58:06;2.37;;;2.17;;
33814;SDS011;20121;51.910;8.406;2023-05-07T15:00:33;3.07;;;1.57;;